USTRANSCOM 7585


KNGU
Norfolk Naval Station (Chambers Field)
Norfolk, Virginia, US
KWRI
Joint Base McGuire Dix Lakehurst
Wrightstown, New Jersey, US

Activity Log

Date Flight Route Aircraft Duration
09/16/2019 CMB805 N0450F390 ORF J121 SWL SIE4 B752 1h 04m

Route Details

Aircraft Information
Primary: Boeing 757-200SF
Backup: Not Available
Route Data
Distance: 701nm
Sched. Duration: 2h 14m
Avg. Duration: 1h 04m (-111m)
Times Flown: 1
Recm'd Route: Not Available
Planned Altitude: 39,000ft
Origin Wx: KNGU 271559Z 28018G24KT 10SM CLR 09/M04 A2986 RMK AO2 PK WND 29028/1502 SLP111 T00891044
Dest. Wx: KWRI 271456Z AUTO 29019G40KT 10SM SCT045 05/M06 A2959 RMK AO2 PK WND 28040/46 SLP020 60000 T00461060 52038 $
Notes: USTRANSCOM CONTRACT FLIGHT

Financial History
Total Freight: 35,386lbs
Average Load: 35,386lbs/flt
Fuel Used: 7,011lbs
Avg. Fuel Used: 7,011lbs/flt
Fuel Expense: $6,660
Avg. Fuel Expense: $6,660
Avg. Fuel Cost: $0.95/lbs
Total Gross Income: $43,879
Pilot Pay: $229
Total Expenses: $4,791
Total Revenue: $32,183
Average Revenue: $43,878.64